createdAt,value
2022-11-13T00:01:16.506Z,18.13
2022-11-13T00:03:43.901Z,17.10
2022-11-13T00:06:12.561Z,13.17
2022-11-13T00:08:39.785Z,12.87
2022-11-13T00:11:15.893Z,10.70
2022-11-13T00:13:45.789Z,12.33
2022-11-13T00:16:16.552Z,12.30
2022-11-13T00:18:43.858Z,11.10
2022-11-13T00:21:16.418Z,12.83
2022-11-13T00:23:43.876Z,10.87
2022-11-13T00:26:17.369Z,10.83
2022-11-13T00:28:44.302Z,11.73
2022-11-13T00:31:13.524Z,12.50
2022-11-13T00:34:14.145Z,9.70
2022-11-13T00:36:28.758Z,12.27
2022-11-13T00:38:55.879Z,12.67
2022-11-13T00:41:23.760Z,10.20
2022-11-13T00:43:50.957Z,11.67
2022-11-13T00:46:18.060Z,11.23
2022-11-13T00:48:45.141Z,10.13
2022-11-13T00:51:14.268Z,10.73
2022-11-13T00:53:41.137Z,8.90
2022-11-13T00:56:08.643Z,14.27
2022-11-13T00:58:35.488Z,10.70
2022-11-13T01:01:11.608Z,10.67
2022-11-13T01:03:38.602Z,12.40
2022-11-13T01:06:23.610Z,15.17
2022-11-13T01:08:50.641Z,8.77
2022-11-13T01:11:21.697Z,8.17
2022-11-13T01:13:50.187Z,8.33
2022-11-13T01:16:19.227Z,9.10
2022-11-13T01:18:46.814Z,9.80
2022-11-13T01:21:20.185Z,10.60
2022-11-13T01:23:47.551Z,9.83
2022-11-13T01:26:21.781Z,7.57
2022-11-13T01:28:48.978Z,8.17
2022-11-13T01:31:19.328Z,7.73
2022-11-13T01:33:47.113Z,10.60
2022-11-13T01:36:19.306Z,7.53
2022-11-13T01:38:46.431Z,10.27
2022-11-13T01:41:31.200Z,7.80
2022-11-13T01:43:58.455Z,11.07
2022-11-13T01:46:29.800Z,8.27
2022-11-13T01:49:14.388Z,9.67
2022-11-13T01:52:10.270Z,8.33
2022-11-13T01:54:45.727Z,7.83
2022-11-13T01:57:13.526Z,7.30
2022-11-13T01:59:44.227Z,7.83
2022-11-13T02:02:11.133Z,11.57
2022-11-13T02:04:38.541Z,7.73
2022-11-13T02:07:09.409Z,8.70
2022-11-13T02:09:45.423Z,7.43
2022-11-13T02:12:14.666Z,10.00
2022-11-13T02:14:49.368Z,6.90
2022-11-13T02:17:21.858Z,8.83
2022-11-13T02:19:53.724Z,7.40
2022-11-13T02:22:26.265Z,7.67
2022-11-13T02:24:55.010Z,8.37
2022-11-13T02:27:31.125Z,8.53
2022-11-13T02:29:57.938Z,7.83
2022-11-13T02:32:24.829Z,9.53
2022-11-13T02:34:51.587Z,8.97
2022-11-13T02:37:18.487Z,7.27
2022-11-13T02:39:45.301Z,8.63
2022-11-13T02:42:12.083Z,10.63
2022-11-13T02:44:39.171Z,7.47
2022-11-13T02:47:05.966Z,7.30
2022-11-13T02:49:32.781Z,7.83
2022-11-13T02:51:59.656Z,8.03
2022-11-13T02:54:26.601Z,6.43
2022-11-13T02:56:53.409Z,6.50
2022-11-13T02:59:20.187Z,6.93
2022-11-13T03:01:48.110Z,8.07
2022-11-13T03:04:14.952Z,7.07
2022-11-13T03:06:41.780Z,7.10
2022-11-13T03:09:08.769Z,8.83
2022-11-13T03:11:35.550Z,7.27
2022-11-13T03:14:02.293Z,6.67
2022-11-13T03:16:29.316Z,7.03
2022-11-13T03:18:57.084Z,7.37
2022-11-13T03:21:24.223Z,7.93
2022-11-13T03:23:51.029Z,7.03
2022-11-13T03:26:18.284Z,7.60
2022-11-13T03:28:45.261Z,7.23
2022-11-13T03:31:12.250Z,6.50
2022-11-13T03:33:39.769Z,8.10
2022-11-13T03:36:07.011Z,7.03
2022-11-13T03:38:34.918Z,7.23
2022-11-13T03:41:01.939Z,9.07
2022-11-13T03:43:28.881Z,7.00
2022-11-13T03:45:55.781Z,8.00
2022-11-13T03:48:22.524Z,7.23
2022-11-13T03:50:53.252Z,7.37
2022-11-13T03:53:20.184Z,7.30
2022-11-13T03:55:47.347Z,7.53
2022-11-13T03:58:14.300Z,7.07
2022-11-13T04:00:43.750Z,7.73
2022-11-13T04:03:11.767Z,7.67
2022-11-13T04:05:39.067Z,7.23
2022-11-13T04:08:06.232Z,7.20
2022-11-13T04:10:33.194Z,6.57
2022-11-13T04:13:00.097Z,11.47
2022-11-13T04:15:27.084Z,9.80
2022-11-13T04:17:53.870Z,6.67
2022-11-13T04:20:20.811Z,6.87
2022-11-13T04:22:47.712Z,7.57
2022-11-13T04:25:14.664Z,7.73
2022-11-13T04:27:41.435Z,8.30
2022-11-13T04:30:09.510Z,7.27
2022-11-13T04:32:36.425Z,9.70
2022-11-13T04:35:04.020Z,6.80
2022-11-13T04:37:30.846Z,7.67
2022-11-13T04:39:57.618Z,6.50
2022-11-13T04:42:43.500Z,6.63
2022-11-13T04:45:10.757Z,9.33
2022-11-13T04:47:37.537Z,7.50
2022-11-13T04:50:05.355Z,7.80
2022-11-13T04:52:32.236Z,7.73
2022-11-13T04:54:59.275Z,6.20
2022-11-13T04:57:26.033Z,7.80
2022-11-13T04:59:52.819Z,7.00
2022-11-13T05:02:19.609Z,7.13
2022-11-13T05:04:46.505Z,8.77
2022-11-13T05:07:13.391Z,11.60
2022-11-13T05:09:40.360Z,7.60
2022-11-13T05:12:08.357Z,8.90
2022-11-13T05:14:37.061Z,7.17
2022-11-13T05:17:06.134Z,8.17
2022-11-13T05:19:33.995Z,7.70
2022-11-13T05:22:01.311Z,5.77
2022-11-13T05:24:28.405Z,8.77
2022-11-13T05:26:55.382Z,10.03
2022-11-13T05:29:22.501Z,7.90
2022-11-13T05:31:49.349Z,8.03
2022-11-13T05:34:16.311Z,8.67
2022-11-13T05:36:43.369Z,9.70
2022-11-13T05:39:11.012Z,7.57
2022-11-13T05:41:37.833Z,7.00
2022-11-13T05:44:04.875Z,5.93
2022-11-13T05:46:31.916Z,5.60
2022-11-13T05:49:01.253Z,5.60
2022-11-13T05:51:31.062Z,5.33
2022-11-13T05:53:58.691Z,5.43
2022-11-13T05:56:28.527Z,5.40
2022-11-13T05:58:56.933Z,4.93
2022-11-13T06:01:43.261Z,5.43
2022-11-13T06:04:10.702Z,5.03
2022-11-13T06:06:37.619Z,6.00
2022-11-13T06:09:06.566Z,5.50
2022-11-13T06:11:33.597Z,4.80
2022-11-13T06:14:00.795Z,5.87
2022-11-13T06:16:30.289Z,5.43
2022-11-13T06:18:58.863Z,5.07
2022-11-13T06:21:28.720Z,4.60
2022-11-13T06:23:56.862Z,4.77
2022-11-13T06:26:27.845Z,5.13
2022-11-13T06:28:54.673Z,4.73
2022-11-13T06:31:33.327Z,5.37
2022-11-13T06:34:00.847Z,4.30
2022-11-13T06:36:33.187Z,7.87
2022-11-13T06:39:00.411Z,4.90
2022-11-13T06:41:31.264Z,5.00
2022-11-13T06:44:02.673Z,6.00
2022-11-13T06:46:30.476Z,5.03
2022-11-13T06:48:58.034Z,9.87
2022-11-13T06:51:27.702Z,5.90
2022-11-13T06:53:54.957Z,6.10
2022-11-13T06:56:22.299Z,6.70
2022-11-13T06:58:49.414Z,6.93
2022-11-13T07:01:19.495Z,9.50
2022-11-13T07:03:46.701Z,11.03
2022-11-13T07:06:16.192Z,8.40
2022-11-13T07:08:43.660Z,9.03
2022-11-13T07:11:16.034Z,6.63
2022-11-13T07:13:43.453Z,6.20
2022-11-13T07:16:17.124Z,5.20
2022-11-13T07:18:54.297Z,6.30
2022-11-13T07:21:22.199Z,4.90
2022-11-13T07:23:50.123Z,5.90
2022-11-13T07:26:17.966Z,5.23
2022-11-13T07:28:45.589Z,4.40
2022-11-13T07:31:13.875Z,4.67
2022-11-13T07:33:40.642Z,4.77
2022-11-13T07:36:08.434Z,4.37
2022-11-13T07:38:35.839Z,5.00
2022-11-13T07:41:03.632Z,5.17
2022-11-13T07:43:31.934Z,5.03
2022-11-13T07:45:59.804Z,5.67
2022-11-13T07:48:28.112Z,6.50
2022-11-13T07:50:59.227Z,5.13
2022-11-13T07:53:26.020Z,5.47
2022-11-13T07:55:53.023Z,6.00
2022-11-13T07:58:19.798Z,6.00
2022-11-13T08:00:46.722Z,5.27
2022-11-13T08:03:15.552Z,5.73
2022-11-13T08:05:43.023Z,5.70
2022-11-13T08:08:13.085Z,6.20
2022-11-13T08:10:39.928Z,6.63
2022-11-13T08:13:09.032Z,4.90
2022-11-13T08:15:35.996Z,5.30
2022-11-13T08:18:04.353Z,5.17
2022-11-13T08:20:32.058Z,5.50
2022-11-13T08:23:00.982Z,4.90
2022-11-13T08:25:28.906Z,5.50
2022-11-13T08:27:56.389Z,4.67
2022-11-13T08:30:25.049Z,4.83
2022-11-13T08:32:52.096Z,4.80
2022-11-13T08:35:21.312Z,4.60
2022-11-13T08:37:49.883Z,4.73
2022-11-13T08:40:16.857Z,4.17
2022-11-13T08:42:43.680Z,4.60
2022-11-13T08:45:11.027Z,4.57
2022-11-13T08:47:38.110Z,4.60
2022-11-13T08:50:06.496Z,4.50
2022-11-13T08:52:33.349Z,5.67
2022-11-13T08:55:00.143Z,5.10
2022-11-13T08:57:27.293Z,5.57
2022-11-13T08:59:54.141Z,6.07
2022-11-13T09:02:20.936Z,6.20
2022-11-13T09:04:47.990Z,5.63
2022-11-13T09:07:14.880Z,5.50
2022-11-13T09:09:41.768Z,5.93
2022-11-13T09:12:08.786Z,5.50
2022-11-13T09:14:36.477Z,10.27
2022-11-13T09:17:03.731Z,5.50
2022-11-13T09:19:30.591Z,5.00
2022-11-13T09:21:57.369Z,5.23
2022-11-13T09:24:24.125Z,5.30
2022-11-13T09:26:51.212Z,7.13
2022-11-13T09:29:18.423Z,4.70
2022-11-13T09:31:45.459Z,4.57
2022-11-13T09:34:12.250Z,6.70
2022-11-13T09:36:39.191Z,4.47
2022-11-13T09:39:06.509Z,5.13
2022-11-13T09:41:47.888Z,4.87
2022-11-13T09:44:32.037Z,5.47
2022-11-13T09:47:33.345Z,4.17
2022-11-13T09:50:26.760Z,5.37
2022-11-13T09:52:54.937Z,5.00
2022-11-13T09:55:28.930Z,5.20
2022-11-13T09:58:20.940Z,4.90
2022-11-13T10:00:48.136Z,4.90
2022-11-13T10:03:46.231Z,4.67
2022-11-13T10:06:45.436Z,3.63
2022-11-13T10:09:58.795Z,5.33
2022-11-13T10:12:28.857Z,2.00
2022-11-13T10:15:00.239Z,3.47
2022-11-13T10:17:31.343Z,2.50
2022-11-13T10:20:02.438Z,3.50
2022-11-13T10:22:33.848Z,2.73
2022-11-13T10:25:15.303Z,5.53
2022-11-13T10:27:44.122Z,3.63
2022-11-13T10:30:19.045Z,2.63
2022-11-13T10:32:46.882Z,2.30
2022-11-13T10:35:26.201Z,2.43
2022-11-13T10:38:07.477Z,2.43
2022-11-13T10:40:37.750Z,2.13
2022-11-13T10:43:15.557Z,2.37
2022-11-13T10:45:53.068Z,3.33
2022-11-13T10:48:28.068Z,2.30
2022-11-13T10:51:20.204Z,3.37
2022-11-13T10:53:47.951Z,2.50
2022-11-13T10:56:22.777Z,2.43
2022-11-13T10:59:15.580Z,2.03
2022-11-13T11:01:44.710Z,3.73
2022-11-13T11:04:22.060Z,2.33
2022-11-13T11:07:18.584Z,2.37
2022-11-13T11:09:38.562Z,2.10
2022-11-13T11:12:18.959Z,3.60
2022-11-13T11:15:01.069Z,2.53
2022-11-13T11:17:52.238Z,2.97
2022-11-13T11:20:24.350Z,2.10
2022-11-13T11:23:27.352Z,2.83
2022-11-13T11:26:00.060Z,2.50
2022-11-13T11:28:36.327Z,2.50
2022-11-13T11:31:33.185Z,2.00
2022-11-13T11:34:02.802Z,2.10
2022-11-13T11:36:49.859Z,3.13
2022-11-13T11:39:19.434Z,2.87
2022-11-13T11:42:05.727Z,2.00
2022-11-13T11:44:51.259Z,2.20
2022-11-13T11:47:18.757Z,2.20
2022-11-13T11:49:45.902Z,2.47
2022-11-13T11:52:23.474Z,2.23
2022-11-13T11:55:21.111Z,2.00
2022-11-13T11:57:57.556Z,2.73
2022-11-13T12:00:26.787Z,2.50
2022-11-13T12:03:28.576Z,4.60
2022-11-13T12:06:26.627Z,2.10
2022-11-13T12:09:06.150Z,2.00
2022-11-13T12:11:44.547Z,1.80
2022-11-13T12:14:27.717Z,2.60
2022-11-13T12:17:22.283Z,2.77
2022-11-13T12:20:01.078Z,1.97
2022-11-13T12:23:14.013Z,2.03
2022-11-13T12:25:54.347Z,2.73
2022-11-13T12:28:53.455Z,1.97
2022-11-13T12:31:39.512Z,2.00
2022-11-13T12:34:41.514Z,2.13
2022-11-13T12:37:17.782Z,1.90
2022-11-13T12:40:00.594Z,3.97
2022-11-13T12:42:54.533Z,1.97
2022-11-13T12:45:36.699Z,2.23
2022-11-13T12:48:21.235Z,1.97
2022-11-13T12:51:00.269Z,1.97
2022-11-13T12:53:29.872Z,2.20
2022-11-13T12:56:02.720Z,2.40
2022-11-13T12:58:32.222Z,2.17
2022-11-13T13:01:08.172Z,1.90
2022-11-13T13:04:17.963Z,2.60
2022-11-13T13:07:13.455Z,3.20
2022-11-13T13:09:59.176Z,2.10
2022-11-13T13:12:44.795Z,2.00
2022-11-13T13:15:36.645Z,2.20
2022-11-13T13:18:03.664Z,3.87
2022-11-13T13:20:39.267Z,2.30
2022-11-13T13:23:10.567Z,2.57
2022-11-13T13:25:38.173Z,4.73
2022-11-13T13:28:07.994Z,2.40
2022-11-13T13:31:16.674Z,3.20
2022-11-13T13:34:03.649Z,3.80
2022-11-13T13:36:48.751Z,2.30
2022-11-13T13:40:12.960Z,2.60
2022-11-13T13:42:51.946Z,2.40
2022-11-13T13:45:27.942Z,2.53
2022-11-13T13:47:58.150Z,3.07
2022-11-13T13:50:29.462Z,2.50
2022-11-13T13:52:59.226Z,2.50
2022-11-13T13:55:39.102Z,2.57
2022-11-13T13:58:13.890Z,2.63
2022-11-13T14:00:59.349Z,2.37
2022-11-13T14:03:29.270Z,3.10
2022-11-13T14:06:07.669Z,2.53
2022-11-13T14:08:34.874Z,2.67
2022-11-13T14:11:16.859Z,2.67
2022-11-13T14:13:43.880Z,2.37
2022-11-13T14:16:10.746Z,2.53
2022-11-13T14:18:37.776Z,2.27
2022-11-13T14:21:29.005Z,2.67
2022-11-13T14:23:56.929Z,2.37
2022-11-13T14:26:23.731Z,2.70
2022-11-13T14:28:58.060Z,2.93
2022-11-13T14:31:30.688Z,2.90
2022-11-13T14:34:01.388Z,2.53
2022-11-13T14:36:31.587Z,2.33
2022-11-13T14:38:59.268Z,2.33
2022-11-13T14:41:34.301Z,2.43
2022-11-13T14:44:01.614Z,2.10
2022-11-13T14:46:31.922Z,2.07
2022-11-13T14:48:58.708Z,2.37
2022-11-13T14:51:28.597Z,4.17
2022-11-13T14:54:08.885Z,2.47
2022-11-13T14:56:43.664Z,4.27
2022-11-13T14:59:19.288Z,2.47
2022-11-13T15:01:57.558Z,2.57
2022-11-13T15:04:24.901Z,3.63
2022-11-13T15:06:56.097Z,2.67
2022-11-13T15:09:25.346Z,3.73
2022-11-13T15:11:52.434Z,2.40
2022-11-13T15:14:20.897Z,3.97
2022-11-13T15:16:49.917Z,3.17
2022-11-13T15:19:24.328Z,2.77
2022-11-13T15:22:20.290Z,4.87
2022-11-13T15:24:38.470Z,2.90
2022-11-13T15:27:05.973Z,3.30
2022-11-13T15:29:33.073Z,3.93
2022-11-13T15:31:59.878Z,3.50
2022-11-13T15:34:26.958Z,3.47
2022-11-13T15:36:53.815Z,2.90
2022-11-13T15:39:23.861Z,3.10
2022-11-13T15:41:51.870Z,3.43
2022-11-13T15:44:18.855Z,5.17
2022-11-13T15:46:45.775Z,2.93
2022-11-13T15:49:12.808Z,2.80
2022-11-13T15:51:42.344Z,4.00
2022-11-13T15:54:28.556Z,4.53
2022-11-13T15:56:55.465Z,5.83
2022-11-13T15:59:22.303Z,4.37
2022-11-13T16:01:53.989Z,4.97
2022-11-13T16:04:24.209Z,4.60
2022-11-13T16:06:54.327Z,5.47
2022-11-13T16:09:21.135Z,5.47
2022-11-13T16:11:47.929Z,7.20
2022-11-13T16:14:14.838Z,7.27
2022-11-13T16:16:41.774Z,5.80
2022-11-13T16:19:14.481Z,6.47
2022-11-13T16:21:41.476Z,6.67
2022-11-13T16:24:10.860Z,7.23
2022-11-13T16:26:37.705Z,17.83
2022-11-13T16:29:19.475Z,20.60
2022-11-13T16:31:46.523Z,8.13
2022-11-13T16:34:13.603Z,7.20
2022-11-13T16:36:40.934Z,7.40
2022-11-13T16:39:13.769Z,7.80
2022-11-13T16:41:40.660Z,6.87
2022-11-13T16:44:07.462Z,6.70
2022-11-13T16:46:37.192Z,6.37
2022-11-13T16:49:04.116Z,7.33
2022-11-13T16:51:30.898Z,7.03
2022-11-13T16:53:57.882Z,10.87
2022-11-13T16:56:30.734Z,8.17
2022-11-13T16:58:59.554Z,6.53
2022-11-13T17:01:29.570Z,10.27
2022-11-13T17:03:56.392Z,8.13
2022-11-13T17:06:35.219Z,7.70
2022-11-13T17:09:03.603Z,7.13
2022-11-13T17:11:32.280Z,7.60
2022-11-13T17:14:01.501Z,7.27
2022-11-13T17:16:29.837Z,8.30
2022-11-13T17:18:56.893Z,6.13
2022-11-13T17:21:26.584Z,6.10
2022-11-13T17:24:02.290Z,7.73
2022-11-13T17:26:31.021Z,8.47
2022-11-13T17:29:02.113Z,5.20
2022-11-13T17:31:29.012Z,6.17
2022-11-13T17:33:55.930Z,8.20
2022-11-13T17:36:22.749Z,6.17
2022-11-13T17:38:52.862Z,7.97
2022-11-13T17:41:19.630Z,6.40
2022-11-13T17:43:46.732Z,8.77
2022-11-13T17:46:15.924Z,8.03
2022-11-13T17:48:43.367Z,7.23
2022-11-13T17:51:13.139Z,8.00
2022-11-13T17:53:40.322Z,7.60
2022-11-13T17:56:09.411Z,6.23
2022-11-13T17:58:41.026Z,7.70
2022-11-13T18:01:12.079Z,9.73
2022-11-13T18:03:39.392Z,8.70
2022-11-13T18:06:13.378Z,10.37
2022-11-13T18:08:42.061Z,10.00
2022-11-13T18:11:11.204Z,11.43
2022-11-13T18:13:38.415Z,12.80
2022-11-13T18:16:10.253Z,10.77
2022-11-13T18:18:37.391Z,14.67
2022-11-13T18:21:32.600Z,15.87
2022-11-13T18:24:00.735Z,12.97
2022-11-13T18:26:29.232Z,14.60
2022-11-13T18:28:56.414Z,15.77
2022-11-13T18:31:23.712Z,17.03
2022-11-13T18:33:51.047Z,18.23
2022-11-13T18:36:18.359Z,16.67
2022-11-13T18:38:45.457Z,18.70
2022-11-13T18:41:15.379Z,22.10
2022-11-13T18:43:50.476Z,17.50
2022-11-13T18:46:19.920Z,19.17
2022-11-13T18:48:48.011Z,16.60
2022-11-13T18:51:27.645Z,17.50
2022-11-13T18:53:55.362Z,19.30
2022-11-13T18:56:27.811Z,29.17
2022-11-13T18:58:55.876Z,25.97
2022-11-13T19:01:25.334Z,18.80
2022-11-13T19:04:22.331Z,14.37
2022-11-13T19:06:40.612Z,15.03
2022-11-13T19:09:13.731Z,18.03
2022-11-13T19:11:41.484Z,17.07
2022-11-13T19:14:09.969Z,14.43
2022-11-13T19:16:40.563Z,15.87
2022-11-13T19:19:14.962Z,13.63
2022-11-13T19:21:42.072Z,19.47
2022-11-13T19:24:10.040Z,15.33
2022-11-13T19:26:36.856Z,13.77
2022-11-13T19:29:03.627Z,18.50
2022-11-13T19:31:31.221Z,16.93
2022-11-13T19:34:03.670Z,14.20
2022-11-13T19:36:31.755Z,21.43
2022-11-13T19:38:59.260Z,18.70
2022-11-13T19:41:27.917Z,16.30
2022-11-13T19:43:57.030Z,19.53
2022-11-13T19:46:23.833Z,14.63
2022-11-13T19:48:52.327Z,12.93
2022-11-13T19:51:22.289Z,15.27
2022-11-13T19:53:54.322Z,13.57
2022-11-13T19:56:22.573Z,13.87
2022-11-13T19:58:50.841Z,12.87
2022-11-13T20:01:21.078Z,15.70
2022-11-13T20:03:47.912Z,15.03
2022-11-13T20:06:17.182Z,17.10
2022-11-13T20:08:44.275Z,13.27
2022-11-13T20:11:15.810Z,14.17
2022-11-13T20:13:42.987Z,18.17
2022-11-13T20:16:11.886Z,17.50
2022-11-13T20:18:39.275Z,17.03
2022-11-13T20:21:06.747Z,16.77
2022-11-13T20:23:35.473Z,17.47
2022-11-13T20:26:05.454Z,17.73
2022-11-13T20:28:32.523Z,19.23
2022-11-13T20:31:23.343Z,15.77
2022-11-13T20:33:52.475Z,16.00
2022-11-13T20:36:20.057Z,13.53
2022-11-13T20:38:54.900Z,15.23
2022-11-13T20:41:22.164Z,14.97
2022-11-13T20:43:49.218Z,19.03
2022-11-13T20:46:17.632Z,15.67
2022-11-13T20:48:46.165Z,15.83
2022-11-13T20:51:15.606Z,15.00
2022-11-13T20:53:42.644Z,17.73
2022-11-13T20:56:10.116Z,14.27
2022-11-13T20:58:37.322Z,18.77
2022-11-13T21:01:10.090Z,22.17
2022-11-13T21:03:41.983Z,16.20
2022-11-13T21:06:17.239Z,17.63
2022-11-13T21:08:44.448Z,20.63
2022-11-13T21:11:19.244Z,16.20
2022-11-13T21:13:47.454Z,15.67
2022-11-13T21:16:14.594Z,15.40
2022-11-13T21:18:42.314Z,13.20
2022-11-13T21:21:14.675Z,15.03
2022-11-13T21:23:41.695Z,13.33
2022-11-13T21:26:09.886Z,14.37
2022-11-13T21:28:37.479Z,15.63
2022-11-13T21:31:07.499Z,14.30
2022-11-13T21:33:39.102Z,15.33
2022-11-13T21:36:09.538Z,17.93
2022-11-13T21:38:36.326Z,13.30
2022-11-13T21:41:21.547Z,11.13
2022-11-13T21:44:02.489Z,12.53
2022-11-13T21:46:35.139Z,13.20
2022-11-13T21:49:04.897Z,16.47
2022-11-13T21:51:33.632Z,13.13
2022-11-13T21:54:00.788Z,13.23
2022-11-13T21:56:29.081Z,13.23
2022-11-13T21:58:56.129Z,13.97
2022-11-13T22:01:37.776Z,12.40
2022-11-13T22:04:08.720Z,16.17
2022-11-13T22:06:36.363Z,14.17
2022-11-13T22:09:07.921Z,13.07
2022-11-13T22:11:37.305Z,10.97
2022-11-13T22:14:05.087Z,11.63
2022-11-13T22:16:33.970Z,17.47
2022-11-13T22:19:03.735Z,11.60
2022-11-13T22:21:31.569Z,11.53
2022-11-13T22:23:59.257Z,12.97
2022-11-13T22:26:27.403Z,13.13
2022-11-13T22:28:55.601Z,11.80
2022-11-13T22:31:28.028Z,13.57
2022-11-13T22:33:55.586Z,14.17
2022-11-13T22:36:25.053Z,13.57
2022-11-13T22:38:52.689Z,13.10
2022-11-13T22:41:23.570Z,15.87
2022-11-13T22:43:53.131Z,12.07
2022-11-13T22:46:23.369Z,13.07
2022-11-13T22:48:51.969Z,13.90
2022-11-13T22:51:24.547Z,17.50
2022-11-13T22:53:59.810Z,16.60
2022-11-13T22:56:29.353Z,19.17
2022-11-13T22:58:58.082Z,16.63
2022-11-13T23:01:27.386Z,15.23
2022-11-13T23:03:55.638Z,17.23
2022-11-13T23:06:25.476Z,13.13
2022-11-13T23:08:52.876Z,14.73
2022-11-13T23:11:23.982Z,13.07
2022-11-13T23:13:54.247Z,13.63
2022-11-13T23:16:22.857Z,17.00
2022-11-13T23:18:54.787Z,17.17
2022-11-13T23:21:22.384Z,15.60
2022-11-13T23:23:49.396Z,17.67
2022-11-13T23:26:16.506Z,11.03
2022-11-13T23:28:43.339Z,12.77
2022-11-13T23:31:10.437Z,12.50
2022-11-13T23:33:38.265Z,12.17
2022-11-13T23:36:08.277Z,12.97
2022-11-13T23:38:35.207Z,11.47
2022-11-13T23:41:02.623Z,12.30
2022-11-13T23:43:54.266Z,15.23
2022-11-13T23:46:17.199Z,16.50
2022-11-13T23:48:44.174Z,11.77
2022-11-13T23:51:10.955Z,13.07
2022-11-13T23:53:37.844Z,17.97
2022-11-13T23:56:04.896Z,13.33
2022-11-13T23:58:32.592Z,12.73
